TAF Text Data
IDs:
Format:
Raw Decoded Include METAR

Data at: 0628 UTC 07 Dec 2022

KPGD 070523Z 0706/0806 VRB03KT P6SM FEW025
  FM071500 07007KT P6SM SCT050 SCT250
  FM072100 03006KT P6SM SCT050 SCT250
  FM080200 VRB03KT P6SM FEW025